Main page
METAR-TAF:

METAR-TAF

Airports :

Ras al-Khaimah, United Arab Emirates

Ras Al Khaimah International Airport

latitude: 25-37N, longitude: 055-56E, elevation: 31 m

Current weather observation

The report was made 28 minutes ago, at 20:00 UTC
Wind 3 kt from the South/Southwest
Temperature 30°C
Humidity 33%
Pressure 1009 hPa
Visibility 10 km or more
no clouds below 1500 m and no cumulonimbus

METAR: OMRK 302000Z 20003KT CAVOK 30/12 Q1008 A2979

Time: 00:28 (20:28 UTC)

Forecast

The report was made 3 hours and 32 minutes ago, at 16:56 UTC
Forecast valid from 30 at 18 UTC to 02 at 00 UTC
Wind 2 kt from variable directions
Visibility: 8000 m
Becoming
from 01 at 04 UTC to 01 at 06 UTC
Wind 10 kt from the South/Southwest
Becoming
from 01 at 07 UTC to 01 at 09 UTC
Wind 16 kt from the West/Northwest
Becoming
from 01 at 15 UTC to 01 at 17 UTC
Wind 2 kt from variable directions

TAF: OMRK 301656Z 3018/0200 VRB02KT 8000 NSC BECMG 0104/0106 20010KT BECMG 0107/0109 30016KT BECMG 0115/0117 VRB02KT

Weather observations and forecasts of more than 4000 airports (METAR and TAF reports).

The available stations are represented by yellow and red dots on the map.

Hover mouse over dot to see the name of the station.

Then click to see weather observations and forecasts.

To change the map : click on the green buttons with a black cross to zoom in, on the green button with a dash to zoom out, or on the green arrows for adjacent maps.


METAR-TAF: